Miskolc, Hungary
Current Conditions -  °F | °C
As of 6:00 PM on Sunday 23 Nov 2014 (Local Time) from LZKZ Reporting Station
Broken Clouds Broken Clouds  
Wind Chill: 33°   Ceiling: 2700
Heat Index: 39°   Visibility: 6mi
Dew Point: 30°   Wind: 9mph
Humidity: 70%   Direction: 10°N
Pressure: 30.42"   Gusts: NA
Location:  48.1°N, 20.79°E
Report Text: LZKZ 231600Z 01008KT 9999 BKN027 04/M01 Q1030 NOSIG
Loading
Personal Weather Stations






























Interactive Weather Map New forecast layout! Learn more

10-Day Weather Forecast

Advertisements
Track Severe Weather on mobile